Sks Delta — LAIU7 — position and weather

sailwx.info

Track history (hours):
 
Tides and Currents Weather Stations Pressure Air Temp Water Temp Dewpoint Dewpoint Depression Visibility Wind Speed Wind Dir Waves Ship Positions

Sks Delta

Last reported at 2018-Feb-24 22:08 UTC. Time now 2018-Feb-25 01:52 UTC.
Position S 38°30' E 148°34'.

Length 250 m; draft 8.6 m.

Type: Tanker. MMSI: 257464000.

Date/timePositionNaut miles runAvg speedWind from/ knotsBaromVisibWave heightAir tempDewpointWater temp
2018-Feb-24 22:08S 38°30' E 148°34'213.6
2018-Feb-24 22:00S 38°29' E 148°36'713.7
2018-Feb-24 21:30S 38°25' E 148°44'813.9
2018-Feb-24 20:57S 38°21' E 148°52'  
2018-Feb-19 23:45S 33°49' E 151°19'2 5.5
2018-Feb-19 23:27S 33°49' E 151°21'2 4.4
2018-Feb-19 23:00S 33°51' E 151°21'2 3.7
2018-Feb-19 22:28S 33°53' E 151°23'1 1.7
2018-Feb-19 21:59S 33°52' E 151°23'1 2.2
2018-Feb-19 21:30S 33°53' E 151°24'3 7.0
2018-Feb-19 21:00S 33°50' E 151°26'710.3
2018-Feb-19 20:18S 33°44' E 151°32'311.4
2018-Feb-19 20:00S 33°42' E 151°34'3312.5
2018-Feb-19 17:22S 33°17' E 152°01'513.5
2018-Feb-19 16:58S 33°14' E 152°05'613.0
2018-Feb-19 16:30S 33°09' E 152°10'612.9
2018-Feb-19 16:00S 33°05' E 152°16'612.5
2018-Feb-19 15:30S 33°00' E 152°21'612.4
2018-Feb-19 15:00S 32°55' E 152°25'612.6
2018-Feb-19 14:30S 32°50' E 152°30'612.7
2018-Feb-19 14:00S 32°45' E 152°34'612.9
2018-Feb-19 13:30S 32°40' E 152°40'613.0
2018-Feb-19 13:00S 32°36' E 152°45'24412.8
2018-Feb-18 17:54S 28°39' E 153°55'612.7
2018-Feb-18 17:27S 28°33' E 153°55'613.4
2018-Feb-18 17:00S 28°27' E 153°56'713.4
2018-Feb-18 16:29S 28°20' E 153°57'613.0
2018-Feb-18 16:00S 28°14' E 153°57'712.9
2018-Feb-18 15:30S 28°08' E 153°58'712.5
2018-Feb-18 14:58S 28°01' E 153°59'612.4
2018-Feb-18 14:28S 27°55' E 153°60'  
Track history (hours):
 
Tides and Currents Weather Stations Pressure Air Temp Water Temp Dewpoint Dewpoint Depression Visibility Wind Speed Wind Dir Waves Ship Positions

Sks Delta

Last reported at 2018-Feb-24 22:08 UTC. Time now 2018-Feb-25 01:52 UTC.
Position S 38°30' E 148°34'.

Length 250 m; draft 8.6 m.

Type: Tanker. MMSI: 257464000.

Date/timePositionNaut miles runAvg speedWind from/ knotsBaromVisibWave heightAir tempDewpointWater temp
2018-Feb-24 22:08S 38°30' E 148°34'213.6
2018-Feb-24 22:00S 38°29' E 148°36'713.7
2018-Feb-24 21:30S 38°25' E 148°44'813.9
2018-Feb-24 20:57S 38°21' E 148°52'  
2018-Feb-19 23:45S 33°49' E 151°19'2 5.5
2018-Feb-19 23:27S 33°49' E 151°21'2 4.4
2018-Feb-19 23:00S 33°51' E 151°21'2 3.7
2018-Feb-19 22:28S 33°53' E 151°23'1 1.7
2018-Feb-19 21:59S 33°52' E 151°23'1 2.2
2018-Feb-19 21:30S 33°53' E 151°24'3 7.0
2018-Feb-19 21:00S 33°50' E 151°26'710.3
2018-Feb-19 20:18S 33°44' E 151°32'311.4
2018-Feb-19 20:00S 33°42' E 151°34'3312.5
2018-Feb-19 17:22S 33°17' E 152°01'513.5
2018-Feb-19 16:58S 33°14' E 152°05'613.0
2018-Feb-19 16:30S 33°09' E 152°10'612.9
2018-Feb-19 16:00S 33°05' E 152°16'612.5
2018-Feb-19 15:30S 33°00' E 152°21'612.4
2018-Feb-19 15:00S 32°55' E 152°25'612.6
2018-Feb-19 14:30S 32°50' E 152°30'612.7
2018-Feb-19 14:00S 32°45' E 152°34'612.9
2018-Feb-19 13:30S 32°40' E 152°40'613.0
2018-Feb-19 13:00S 32°36' E 152°45'24412.8
2018-Feb-18 17:54S 28°39' E 153°55'612.7
2018-Feb-18 17:27S 28°33' E 153°55'613.4
2018-Feb-18 17:00S 28°27' E 153°56'713.4
2018-Feb-18 16:29S 28°20' E 153°57'613.0
2018-Feb-18 16:00S 28°14' E 153°57'712.9
2018-Feb-18 15:30S 28°08' E 153°58'712.5
2018-Feb-18 14:58S 28°01' E 153°59'612.4
2018-Feb-18 14:28S 27°55' E 153°60'  

Dump ship's entire track history